Time;durP1;ratioP1;P1;durP2;ratioP2;P2;SDS_P1;SDS_P2;PMS_P1;PMS_P2;Temp;Humidity;BMP_temperature;BMP_pressure;BME280_temperature;BME280_humidity;BME280_pressure;Samples;Min_cycle;Max_cycle;Signal;HPM_P1;HPM_P2
2021/11/10 00:00:38;;;;;;;72.00;24.23;;;;;;;;;;4967350;28;20401;-58
2021/11/10 00:03:03;;;;;;;73.63;24.80;;;;;;;;;;4966037;28;20141;-57
2021/11/10 00:05:29;;;;;;;90.07;30.55;;;;;;;;;;4967184;28;20022;-58
2021/11/10 00:07:55;;;;;;;60.50;21.27;;;;;;;;;;4965184;28;20030;-58
2021/11/10 00:10:21;;;;;;;67.50;23.27;;;;;;;;;;4977175;28;20461;-58
2021/11/10 00:12:47;;;;;;;121.13;35.97;;;;;;;;;;4964758;28;20122;-57
2021/11/10 00:15:13;;;;;;;74.03;27.75;;;;;;;;;;4963632;28;20402;-57
2021/11/10 00:17:39;;;;;;;73.53;26.45;;;;;;;;;;4961652;28;20039;-57
2021/11/10 00:20:07;;;;;;;60.97;21.25;;;;;;;;;;4959816;28;20415;-57
2021/11/10 00:22:33;;;;;;;104.60;33.92;;;;;;;;;;4961159;28;20058;-57
2021/11/10 00:24:58;;;;;;;93.68;31.38;;;;;;;;;;4960425;28;20030;-57
2021/11/10 00:27:24;;;;;;;63.85;23.10;;;;;;;;;;4966641;28;20053;-57
2021/11/10 00:29:49;;;;;;;44.08;18.25;;;;;;;;;;4959828;28;20026;-56
2021/11/10 00:32:15;;;;;;;40.28;14.57;;;;;;;;;;4962600;28;20038;-58
2021/11/10 00:34:41;;;;;;;38.15;15.48;;;;;;;;;;4979516;28;20027;-58
2021/11/10 00:37:06;;;;;;;37.47;15.10;;;;;;;;;;4960718;28;20024;-58
2021/11/10 00:39:32;;;;;;;34.47;14.20;;;;;;;;;;4964345;28;20035;-58
2021/11/10 00:41:57;;;;;;;35.55;13.02;;;;;;;;;;4960933;28;20030;-58
2021/11/10 00:44:23;;;;;;;32.50;13.48;;;;;;;;;;4965410;28;20035;-57
2021/11/10 00:46:48;;;;;;;34.03;14.45;;;;;;;;;;4963567;28;20023;-58
2021/11/10 00:49:14;;;;;;;31.23;13.43;;;;;;;;;;4968607;28;20062;-57
2021/11/10 00:51:39;;;;;;;35.92;14.77;;;;;;;;;;4962492;28;20023;-57
2021/11/10 01:10:56;;;;;;;32.25;12.52;;;;;;;;;;4963711;28;20108;-57
2021/11/10 01:13:22;;;;;;;35.95;13.75;;;;;;;;;;4961233;28;20046;-56
2021/11/10 01:15:49;;;;;;;33.90;13.60;;;;;;;;;;4960241;28;20054;-56
2021/11/10 01:18:14;;;;;;;32.80;13.07;;;;;;;;;;4956735;28;20406;-58
2021/11/10 01:20:41;;;;;;;33.60;13.40;;;;;;;;;;4960783;28;20027;-58
2021/11/10 01:23:08;;;;;;;34.95;14.07;;;;;;;;;;4959822;28;20406;-58
2021/11/10 01:25:35;;;;;;;33.35;13.93;;;;;;;;;;4959233;28;20027;-58
2021/11/10 01:28:00;;;;;;;32.67;13.57;;;;;;;;;;4967033;28;20030;-58
2021/11/10 01:30:26;;;;;;;38.97;14.98;;;;;;;;;;4964500;28;20022;-58
2021/11/10 01:32:51;;;;;;;37.90;14.90;;;;;;;;;;4965375;28;20092;-58
2021/11/10 01:35:17;;;;;;;38.13;15.10;;;;;;;;;;4962875;28;20038;-57
2021/11/10 01:37:43;;;;;;;35.17;15.57;;;;;;;;;;4963276;28;20039;-58
2021/11/10 01:40:10;;;;;;;38.65;15.80;;;;;;;;;;4962446;28;20405;-58
2021/11/10 01:42:41;;;;;;;38.25;15.57;;;;;;;;;;4961168;28;20508;-58
2021/11/10 01:45:09;;;;;;;32.65;14.00;;;;;;;;;;4962668;28;20035;-58
2021/11/10 01:47:34;;;;;;;34.90;14.32;;;;;;;;;;4958341;28;20027;-59
2021/11/10 01:50:00;;;;;;;34.05;15.02;;;;;;;;;;4960399;28;20087;-58
2021/11/10 01:52:26;;;;;;;35.00;14.07;;;;;;;;;;4966257;28;20018;-58
2021/11/10 01:54:52;;;;;;;35.08;14.73;;;;;;;;;;4963476;28;20390;-58
2021/11/10 01:57:17;;;;;;;40.50;14.77;;;;;;;;;;4957210;28;20035;-58
2021/11/10 01:59:45;;;;;;;34.88;15.02;;;;;;;;;;4956075;28;20528;-58
2021/11/10 02:02:21;;;;;;;37.97;15.80;;;;;;;;;;4964203;28;20042;-58
2021/11/10 02:04:48;;;;;;;37.70;15.63;;;;;;;;;;4963670;28;20076;-58
2021/11/10 02:07:16;;;;;;;35.53;14.50;;;;;;;;;;4965327;28;20117;-57
2021/11/10 02:09:46;;;;;;;35.10;15.65;;;;;;;;;;4962630;28;20383;-57
2021/11/10 02:12:11;;;;;;;41.88;15.68;;;;;;;;;;4964985;28;20037;-57
2021/11/10 02:14:38;;;;;;;38.17;16.13;;;;;;;;;;4963887;28;20031;-58
2021/11/10 02:17:05;;;;;;;35.42;15.35;;;;;;;;;;4964075;28;20026;-58
2021/11/10 02:19:31;;;;;;;37.03;15.93;;;;;;;;;;4962199;28;20139;-58
2021/11/10 02:21:58;;;;;;;32.95;14.15;;;;;;;;;;4963241;28;20035;-57
2021/11/10 02:24:26;;;;;;;39.17;15.40;;;;;;;;;;4962276;28;20027;-58
2021/11/10 02:26:52;;;;;;;38.08;15.93;;;;;;;;;;4963439;28;20026;-57
2021/11/10 02:29:20;;;;;;;39.83;16.17;;;;;;;;;;4960443;28;20023;-58
2021/11/10 02:31:47;;;;;;;34.63;14.48;;;;;;;;;;4962519;28;20077;-58
2021/11/10 02:34:12;;;;;;;40.97;15.50;;;;;;;;;;4959504;28;20394;-58
2021/11/10 02:36:39;;;;;;;32.20;14.27;;;;;;;;;;4961080;28;20030;-58
2021/11/10 02:39:10;;;;;;;39.85;15.48;;;;;;;;;;4960942;28;20027;-58
2021/11/10 02:41:37;;;;;;;35.63;14.80;;;;;;;;;;4978367;28;20332;-58
2021/11/10 02:44:05;;;;;;;41.30;15.80;;;;;;;;;;4965820;28;20122;-58
2021/11/10 02:46:34;;;;;;;40.85;15.32;;;;;;;;;;4963194;28;20027;-58
2021/11/10 02:49:00;;;;;;;39.25;14.82;;;;;;;;;;4977001;28;20401;-58
2021/11/10 02:51:25;;;;;;;35.13;14.40;;;;;;;;;;4958893;28;20031;-58
2021/11/10 02:53:51;;;;;;;36.08;14.45;;;;;;;;;;4962664;28;20061;-58
2021/11/10 02:56:17;;;;;;;31.00;13.68;;;;;;;;;;4962452;28;20149;-57
2021/11/10 02:58:42;;;;;;;31.85;13.85;;;;;;;;;;4964103;28;20027;-56
2021/11/10 03:01:08;;;;;;;35.45;13.68;;;;;;;;;;4960688;28;20057;-56
2021/11/10 03:03:34;;;;;;;37.30;15.88;;;;;;;;;;4960695;28;20134;-59
2021/11/10 03:05:59;;;;;;;38.42;15.95;;;;;;;;;;4961700;28;20019;-58
2021/11/10 03:08:24;;;;;;;38.72;15.85;;;;;;;;;;4958754;28;20105;-57
2021/11/10 03:10:51;;;;;;;38.20;14.43;;;;;;;;;;4958793;28;20030;-57
2021/11/10 03:13:16;;;;;;;34.08;14.48;;;;;;;;;;4978518;28;20053;-58
2021/11/10 03:15:44;;;;;;;34.92;15.75;;;;;;;;;;4963975;28;20023;-57
2021/11/10 03:18:11;;;;;;;32.08;14.15;;;;;;;;;;4957415;28;20034;-57
2021/11/10 03:20:37;;;;;;;36.45;15.10;;;;;;;;;;4961766;28;20035;-58
2021/11/10 03:23:04;;;;;;;36.28;15.82;;;;;;;;;;4958807;28;20508;-58
2021/11/10 03:25:30;;;;;;;37.80;15.27;;;;;;;;;;4962806;28;20129;-58
2021/11/10 03:27:56;;;;;;;34.33;14.32;;;;;;;;;;4960086;28;20509;-57
2021/11/10 03:30:22;;;;;;;35.90;15.52;;;;;;;;;;4957179;28;20482;-57
2021/11/10 03:32:49;;;;;;;35.83;15.75;;;;;;;;;;4964638;28;20046;-56
2021/11/10 03:35:14;;;;;;;35.80;14.82;;;;;;;;;;4965099;28;20529;-57
2021/11/10 03:37:41;;;;;;;35.50;13.10;;;;;;;;;;4962642;28;20122;-58
2021/11/10 03:40:08;;;;;;;33.40;14.70;;;;;;;;;;4958193;28;20465;-58
2021/11/10 03:42:33;;;;;;;37.45;15.43;;;;;;;;;;4959601;28;20034;-58
2021/11/10 03:44:59;;;;;;;40.97;15.98;;;;;;;;;;4963474;28;20047;-58
2021/11/10 03:47:25;;;;;;;38.08;15.15;;;;;;;;;;4960421;28;20025;-57
2021/11/10 03:49:51;;;;;;;34.85;15.02;;;;;;;;;;4955829;28;20027;-57
2021/11/10 03:52:17;;;;;;;38.50;14.70;;;;;;;;;;4964603;28;20023;-57
2021/11/10 03:54:43;;;;;;;33.00;14.40;;;;;;;;;;4978618;28;20023;-59
2021/11/10 03:57:09;;;;;;;36.50;14.63;;;;;;;;;;4961996;28;20066;-57
2021/11/10 03:59:35;;;;;;;40.92;15.70;;;;;;;;;;4957591;28;20047;-58
2021/11/10 04:02:00;;;;;;;37.95;15.90;;;;;;;;;;4959191;28;20041;-57
2021/11/10 04:04:26;;;;;;;34.05;15.02;;;;;;;;;;4960684;28;20037;-58
2021/11/10 04:06:51;;;;;;;37.75;15.68;;;;;;;;;;4960580;28;20472;-57
2021/11/10 04:09:17;;;;;;;40.80;17.38;;;;;;;;;;4960524;28;20397;-58
2021/11/10 04:11:43;;;;;;;35.83;15.73;;;;;;;;;;4961701;28;20065;-57
2021/11/10 04:14:09;;;;;;;36.45;16.25;;;;;;;;;;4963143;28;20037;-57
2021/11/10 04:16:35;;;;;;;36.40;15.35;;;;;;;;;;4958577;28;20405;-58
2021/11/10 04:19:00;;;;;;;37.10;16.73;;;;;;;;;;4958149;28;20037;-57
2021/11/10 04:21:27;;;;;;;74.03;20.77;;;;;;;;;;4959336;28;20031;-57
2021/11/10 04:23:55;;;;;;;64.43;22.73;;;;;;;;;;4963030;28;20023;-57
2021/11/10 04:26:22;;;;;;;61.90;21.27;;;;;;;;;;4974464;28;20031;-57
2021/11/10 04:28:48;;;;;;;61.60;20.35;;;;;;;;;;4961688;28;20061;-57
2021/11/10 04:31:14;;;;;;;44.33;17.27;;;;;;;;;;4962791;28;20066;-57
2021/11/10 04:33:40;;;;;;;44.33;16.13;;;;;;;;;;4961872;28;20085;-56
2021/11/10 04:36:06;;;;;;;36.65;15.05;;;;;;;;;;4962373;28;20097;-57
2021/11/10 04:38:32;;;;;;;35.72;15.32;;;;;;;;;;4965086;28;20319;-57
2021/11/10 04:40:57;;;;;;;32.28;13.65;;;;;;;;;;4965207;28;20058;-57
2021/11/10 04:43:23;;;;;;;37.63;14.90;;;;;;;;;;4960018;28;20059;-57
2021/11/10 04:45:53;;;;;;;37.63;16.50;;;;;;;;;;4981953;28;20045;-57
2021/11/10 04:48:19;;;;;;;36.67;15.77;;;;;;;;;;4966043;28;20023;-56
2021/11/10 04:50:46;;;;;;;35.55;15.18;;;;;;;;;;4962588;28;20039;-57
2021/11/10 04:53:13;;;;;;;37.42;15.50;;;;;;;;;;4964954;28;20486;-56
2021/11/10 04:55:39;;;;;;;37.90;15.45;;;;;;;;;;4967286;28;20436;-57
2021/11/10 04:58:05;;;;;;;38.33;16.50;;;;;;;;;;4967874;28;20033;-57
2021/11/10 05:00:30;;;;;;;36.78;15.50;;;;;;;;;;4959453;28;20019;-56
2021/11/10 05:02:56;;;;;;;36.78;15.25;;;;;;;;;;4964921;28;20034;-58
2021/11/10 05:05:21;;;;;;;35.33;14.93;;;;;;;;;;4966063;28;20093;-57
2021/11/10 05:07:50;;;;;;;41.03;16.27;;;;;;;;;;4964125;28;20023;-57
2021/11/10 05:10:17;;;;;;;43.83;18.63;;;;;;;;;;4964462;28;20115;-57
2021/11/10 05:12:43;;;;;;;43.17;17.40;;;;;;;;;;4964433;28;20429;-57
2021/11/10 05:15:09;;;;;;;34.72;15.95;;;;;;;;;;4964584;28;20075;-57
2021/11/10 05:17:35;;;;;;;37.88;14.75;;;;;;;;;;4963582;28;20027;-58
2021/11/10 05:20:00;;;;;;;36.05;14.63;;;;;;;;;;4963632;28;20033;-57
2021/11/10 05:22:26;;;;;;;34.28;14.73;;;;;;;;;;4961793;28;20401;-57
2021/11/10 05:24:51;;;;;;;43.22;16.45;;;;;;;;;;4965076;28;20429;-57
2021/11/10 05:27:17;;;;;;;32.65;14.82;;;;;;;;;;4965696;28;20026;-57
2021/11/10 05:29:42;;;;;;;35.85;15.25;;;;;;;;;;4958540;28;20034;-56
2021/11/10 05:32:08;;;;;;;35.63;15.98;;;;;;;;;;4961040;28;20042;-56
2021/11/10 05:34:35;;;;;;;38.65;15.68;;;;;;;;;;4964394;28;20456;-57
2021/11/10 05:37:01;;;;;;;44.50;19.38;;;;;;;;;;4959052;28;20027;-57
2021/11/10 05:39:26;;;;;;;42.25;16.80;;;;;;;;;;4962868;28;20070;-57
2021/11/10 05:41:52;;;;;;;34.70;15.18;;;;;;;;;;4964003;28;20065;-57
2021/11/10 05:44:17;;;;;;;42.17;17.65;;;;;;;;;;4964115;28;20149;-57
2021/11/10 05:46:43;;;;;;;40.83;17.42;;;;;;;;;;4966449;28;20031;-57
2021/11/10 05:49:09;;;;;;;38.33;15.43;;;;;;;;;;4961440;28;20051;-57
2021/11/10 05:51:35;;;;;;;41.53;16.33;;;;;;;;;;4963563;28;20039;-57
2021/11/10 05:54:02;;;;;;;36.60;16.08;;;;;;;;;;4958030;28;20093;-58
2021/11/10 05:56:32;;;;;;;41.95;16.67;;;;;;;;;;4963415;28;20031;-57
2021/11/10 05:58:58;;;;;;;35.03;14.85;;;;;;;;;;4963411;28;20058;-57
2021/11/10 06:01:27;;;;;;;38.00;15.73;;;;;;;;;;4964098;28;20121;-58
2021/11/10 06:03:54;;;;;;;34.63;14.70;;;;;;;;;;4963331;28;20429;-55
2021/11/10 06:06:21;;;;;;;35.97;14.50;;;;;;;;;;4960330;28;20071;-56
2021/11/10 06:08:46;;;;;;;36.05;15.50;;;;;;;;;;4964585;28;20031;-56
2021/11/10 06:11:12;;;;;;;36.22;16.10;;;;;;;;;;4958645;28;20210;-58
2021/11/10 06:13:39;;;;;;;37.97;14.93;;;;;;;;;;4961530;28;20065;-58
2021/11/10 06:16:06;;;;;;;34.03;15.15;;;;;;;;;;4965949;28;20739;-58
2021/11/10 06:18:32;;;;;;;36.08;15.35;;;;;;;;;;4963184;28;20035;-57
2021/11/10 06:20:59;;;;;;;38.28;16.10;;;;;;;;;;4963103;28;20104;-56
2021/11/10 06:23:24;;;;;;;36.25;15.13;;;;;;;;;;4960564;28;20482;-57
2021/11/10 06:25:50;;;;;;;32.72;14.77;;;;;;;;;;4965210;28;20062;-56
2021/11/10 06:28:15;;;;;;;33.88;14.52;;;;;;;;;;4963903;28;20665;-57
2021/11/10 06:30:41;;;;;;;38.08;14.82;;;;;;;;;;4958864;28;20042;-57
2021/11/10 06:33:07;;;;;;;37.58;16.05;;;;;;;;;;4962272;28;20512;-57
2021/11/10 06:35:32;;;;;;;38.72;15.82;;;;;;;;;;4961851;28;21737;-57
2021/11/10 06:37:58;;;;;;;34.05;14.30;;;;;;;;;;4960607;28;20042;-58
2021/11/10 06:40:23;;;;;;;36.35;15.13;;;;;;;;;;4957578;28;20035;-57
2021/11/10 06:42:49;;;;;;;39.83;15.68;;;;;;;;;;4960201;28;20026;-57
2021/11/10 06:45:14;;;;;;;46.42;19.88;;;;;;;;;;4961396;28;20085;-56
2021/11/10 06:47:40;;;;;;;44.65;18.00;;;;;;;;;;4963727;28;20045;-58
2021/11/10 06:50:06;;;;;;;41.60;16.05;;;;;;;;;;4957267;28;20031;-57
2021/11/10 06:52:31;;;;;;;45.90;16.70;;;;;;;;;;4960533;28;20588;-57
2021/11/10 06:54:57;;;;;;;40.08;14.57;;;;;;;;;;4960557;28;20031;-57
2021/11/10 06:57:25;;;;;;;24.30;8.30;;;;;;;;;;4961176;28;20035;-57
2021/11/10 06:59:50;;;;;;;46.70;16.25;;;;;;;;;;4959831;28;20108;-57
2021/11/10 07:02:16;;;;;;;36.92;14.73;;;;;;;;;;4963532;28;20030;-57
2021/11/10 07:04:41;;;;;;;30.05;14.43;;;;;;;;;;4959337;28;20482;-57
2021/11/10 07:07:07;;;;;;;28.75;12.48;;;;;;;;;;4962766;28;20037;-56
2021/11/10 07:09:32;;;;;;;35.15;13.55;;;;;;;;;;4965124;28;20038;-57
2021/11/10 07:11:58;;;;;;;31.27;13.10;;;;;;;;;;4959808;28;20653;-57
2021/11/10 07:14:26;;;;;;;53.83;19.17;;;;;;;;;;4962749;28;20552;-57
2021/11/10 07:16:51;;;;;;;39.38;15.45;;;;;;;;;;4960312;28;20042;-56
2021/11/10 07:19:17;;;;;;;33.90;13.32;;;;;;;;;;4958925;28;20042;-56
2021/11/10 07:21:42;;;;;;;43.05;17.77;;;;;;;;;;4961039;28;20039;-57
2021/11/10 07:24:08;;;;;;;42.90;17.52;;;;;;;;;;4962913;28;20077;-57
2021/11/10 07:26:33;;;;;;;50.63;18.83;;;;;;;;;;4962369;28;20034;-57
2021/11/10 07:28:59;;;;;;;38.10;15.82;;;;;;;;;;4956464;28;20030;-57
2021/11/10 07:31:25;;;;;;;30.95;13.27;;;;;;;;;;4959517;28;20038;-58
2021/11/10 07:33:50;;;;;;;30.80;12.38;;;;;;;;;;4955750;28;20039;-57
2021/11/10 07:36:16;;;;;;;30.08;12.65;;;;;;;;;;4957321;28;20190;-58
2021/11/10 07:38:42;;;;;;;31.83;14.18;;;;;;;;;;4960251;28;20030;-58
2021/11/10 07:41:12;;;;;;;33.97;16.55;;;;;;;;;;4957534;28;20107;-58
2021/11/10 07:43:38;;;;;;;40.47;18.55;;;;;;;;;;4960752;28;20034;-58
2021/11/10 07:46:24;;;;;;;45.15;19.42;;;;;;;;;;4960909;28;20130;-58
2021/11/10 07:48:49;;;;;;;55.50;20.90;;;;;;;;;;4961949;28;20027;-58
2021/11/10 07:51:19;;;;;;;54.55;21.70;;;;;;;;;;4959897;28;20030;-58
2021/11/10 07:53:45;;;;;;;55.58;20.23;;;;;;;;;;4958574;28;21204;-58
2021/11/10 07:56:11;;;;;;;43.55;19.90;;;;;;;;;;4959115;28;20030;-58
2021/11/10 07:58:38;;;;;;;43.72;18.45;;;;;;;;;;4958759;28;20540;-58
2021/11/10 08:01:04;;;;;;;42.25;19.25;;;;;;;;;;4960584;28;20038;-57
2021/11/10 08:03:30;;;;;;;49.08;21.50;;;;;;;;;;4960803;28;20421;-56
2021/11/10 08:05:57;;;;;;;46.35;20.52;;;;;;;;;;4959240;28;20039;-58
2021/11/10 08:08:23;;;;;;;48.67;20.70;;;;;;;;;;4958917;28;20026;-57
2021/11/10 08:10:50;;;;;;;50.38;21.90;;;;;;;;;;4956246;28;20105;-57
2021/11/10 08:13:15;;;;;;;53.25;24.60;;;;;;;;;;4964010;28;20417;-58
2021/11/10 08:15:41;;;;;;;54.95;26.10;;;;;;;;;;4966829;28;20075;-57
2021/11/10 08:18:06;;;;;;;54.33;25.45;;;;;;;;;;4963400;28;20039;-58
2021/11/10 08:20:32;;;;;;;60.72;27.00;;;;;;;;;;4966050;28;20070;-57
2021/11/10 08:22:57;;;;;;;65.80;29.60;;;;;;;;;;4960056;28;20109;-57
2021/11/10 08:25:23;;;;;;;51.90;26.33;;;;;;;;;;4963897;28;20110;-57
2021/11/10 08:27:48;;;;;;;63.55;28.40;;;;;;;;;;4958749;28;20019;-58
2021/11/10 08:30:18;;;;;;;63.60;29.95;;;;;;;;;;4960108;28;20466;-57
2021/11/10 08:32:46;;;;;;;65.32;29.42;;;;;;;;;;4961871;28;20422;-58
2021/11/10 08:35:12;;;;;;;70.20;32.08;;;;;;;;;;4969824;28;20038;-59
2021/11/10 08:37:37;;;;;;;61.53;29.75;;;;;;;;;;4961297;28;20371;-57
2021/11/10 08:40:05;;;;;;;64.43;28.42;;;;;;;;;;4979077;28;20121;-57
2021/11/10 08:42:34;;;;;;;65.20;28.35;;;;;;;;;;4958568;28;20035;-57
2021/11/10 08:45:16;;;;;;;64.90;26.80;;;;;;;;;;4964806;28;20829;-57
2021/11/10 08:47:42;;;;;;;58.70;24.10;;;;;;;;;;4964282;28;20035;-57
2021/11/10 08:50:09;;;;;;;58.88;24.60;;;;;;;;;;4963002;28;20035;-57
2021/11/10 08:52:36;;;;;;;50.90;22.55;;;;;;;;;;4961037;28;20058;-57
2021/11/10 08:55:04;;;;;;;46.67;22.35;;;;;;;;;;4963078;28;20030;-57
2021/11/10 08:57:30;;;;;;;48.63;22.40;;;;;;;;;;4966882;28;20430;-57
2021/11/10 08:59:55;;;;;;;54.08;24.48;;;;;;;;;;4964231;28;20031;-57
2021/11/10 09:02:20;;;;;;;58.83;25.17;;;;;;;;;;4962985;28;20608;-58
2021/11/10 09:04:46;;;;;;;49.92;23.92;;;;;;;;;;4962441;28;20460;-58
2021/11/10 09:07:11;;;;;;;56.63;24.98;;;;;;;;;;4960389;28;20650;-58
2021/11/10 09:09:37;;;;;;;54.10;25.48;;;;;;;;;;4958267;28;20031;-57
2021/11/10 09:12:03;;;;;;;54.70;25.73;;;;;;;;;;4964250;28;20413;-56
2021/11/10 09:14:28;;;;;;;57.53;26.95;;;;;;;;;;4959821;28;20496;-56
2021/11/10 09:16:54;;;;;;;56.17;27.23;;;;;;;;;;4961762;28;20039;-55
2021/11/10 09:19:19;;;;;;;61.67;28.35;;;;;;;;;;4965019;28;20035;-58
2021/11/10 09:21:45;;;;;;;50.38;25.30;;;;;;;;;;4955871;28;20513;-57
2021/11/10 09:24:11;;;;;;;56.97;27.42;;;;;;;;;;4962625;28;20031;-57
2021/11/10 09:26:37;;;;;;;57.90;27.60;;;;;;;;;;4963997;28;20031;-59
2021/11/10 09:29:04;;;;;;;61.13;27.30;;;;;;;;;;4962402;28;20489;-58
2021/11/10 09:31:30;;;;;;;61.45;27.42;;;;;;;;;;4978924;28;20031;-56
2021/11/10 09:34:04;;;;;;;58.60;27.10;;;;;;;;;;4959813;28;20402;-57
2021/11/10 09:36:29;;;;;;;54.20;25.85;;;;;;;;;;4956674;28;20050;-57
2021/11/10 09:38:56;;;;;;;66.82;29.00;;;;;;;;;;4962675;28;20128;-57
2021/11/10 09:41:22;;;;;;;65.43;31.40;;;;;;;;;;4957125;28;20046;-58
2021/11/10 09:43:48;;;;;;;64.10;31.90;;;;;;;;;;4960627;28;20022;-58
2021/11/10 09:46:14;;;;;;;79.13;35.70;;;;;;;;;;4956907;28;20540;-57
2021/11/10 09:48:39;;;;;;;98.25;45.58;;;;;;;;;;4962602;28;20165;-58
2021/11/10 09:51:06;;;;;;;186.10;77.60;;;;;;;;;;4965546;28;20031;-58
2021/11/10 09:53:33;;;;;;;249.30;97.90;;;;;;;;;;4960115;28;20536;-58
2021/11/10 09:56:00;;;;;;;230.32;90.15;;;;;;;;;;4964318;28;20053;-58
2021/11/10 09:58:26;;;;;;;172.68;67.10;;;;;;;;;;4962461;28;20034;-57
2021/11/10 10:00:59;;;;;;;97.05;44.47;;;;;;;;;;4958932;28;20039;-57
2021/11/10 10:03:25;;;;;;;88.63;41.67;;;;;;;;;;4961685;28;20502;-58
2021/11/10 10:05:53;;;;;;;71.60;35.47;;;;;;;;;;4959371;28;20170;-58
2021/11/10 10:08:20;;;;;;;61.53;27.70;;;;;;;;;;4963725;28;20023;-57
2021/11/10 10:10:46;;;;;;;58.45;25.73;;;;;;;;;;4963939;28;20588;-58
2021/11/10 10:13:13;;;;;;;63.78;28.02;;;;;;;;;;4957396;28;20085;-58
2021/11/10 10:15:40;;;;;;;66.88;26.83;;;;;;;;;;4959699;28;20125;-58
2021/11/10 10:18:32;;;;;;;112.82;37.63;;;;;;;;;;4966220;28;20177;-58
2021/11/10 10:21:09;;;;;;;83.25;32.10;;;;;;;;;;4955370;28;20513;-58
2021/11/10 10:23:43;;;;;;;98.57;37.53;;;;;;;;;;4960638;28;20093;-58
2021/11/10 10:26:13;;;;;;;93.05;37.42;;;;;;;;;;4964074;28;20412;-57
2021/11/10 10:28:44;;;;;;;73.40;35.30;;;;;;;;;;4963048;28;20041;-57
2021/11/10 10:31:16;;;;;;;69.85;29.80;;;;;;;;;;4960363;28;20027;-57
2021/11/10 10:33:48;;;;;;;62.75;29.65;;;;;;;;;;4960847;28;20038;-57
2021/11/10 10:36:27;;;;;;;75.82;34.55;;;;;;;;;;4962609;28;20498;-58
2021/11/10 10:39:02;;;;;;;68.10;30.77;;;;;;;;;;4958544;28;20544;-57
2021/11/10 10:41:33;;;;;;;175.10;67.20;;;;;;;;;;4958216;28;20114;-58
2021/11/10 10:44:20;;;;;;;154.68;58.42;;;;;;;;;;4960931;28;20089;-57
2021/11/10 10:46:57;;;;;;;146.07;59.85;;;;;;;;;;4962715;28;20034;-57
2021/11/10 10:49:33;;;;;;;79.20;37.45;;;;;;;;;;4962424;28;20103;-58
2021/11/10 10:52:15;;;;;;;57.45;28.23;;;;;;;;;;4956309;28;20042;-57
2021/11/10 10:54:42;;;;;;;73.65;34.75;;;;;;;;;;4959161;28;20108;-57
2021/11/10 10:57:10;;;;;;;74.07;33.03;;;;;;;;;;4962036;28;20157;-58
2021/11/10 10:59:36;;;;;;;71.57;32.90;;;;;;;;;;4956864;28;20034;-58
2021/11/10 11:02:03;;;;;;;80.90;34.58;;;;;;;;;;4958369;28;20039;-56
2021/11/10 11:04:31;;;;;;;187.23;55.45;;;;;;;;;;4961904;28;20056;-57
2021/11/10 11:07:08;;;;;;;297.60;82.03;;;;;;;;;;4958881;28;20019;-58
2021/11/10 11:09:49;;;;;;;320.50;91.50;;;;;;;;;;4961590;28;20045;-57
2021/11/10 11:12:18;;;;;;;134.82;49.58;;;;;;;;;;4958198;28;20069;-57
2021/11/10 11:14:55;;;;;;;73.78;33.40;;;;;;;;;;4955617;28;20485;-57
2021/11/10 11:17:32;;;;;;;63.63;30.20;;;;;;;;;;4960798;28;20460;-59
2021/11/10 11:20:09;;;;;;;53.00;26.05;;;;;;;;;;4957929;28;20082;-57
2021/11/10 11:22:40;;;;;;;48.17;24.98;;;;;;;;;;4979046;28;20027;-58
2021/11/10 11:25:42;;;;;;;123.95;49.15;;;;;;;;;;4962335;28;20050;-57
2021/11/10 11:28:13;;;;;;;227.85;69.85;;;;;;;;;;4944377;28;20042;-58
2021/11/10 11:30:50;;;;;;;321.20;90.90;;;;;;;;;;4963114;28;20082;-58
2021/11/10 11:33:18;;;;;;;413.48;110.68;;;;;;;;;;4959434;28;20110;-57
2021/11/10 11:35:58;;;;;;;583.40;151.38;;;;;;;;;;4963081;28;20035;-58
2021/11/10 11:38:26;;;;;;;374.40;94.60;;;;;;;;;;4965095;28;20072;-56
2021/11/10 11:40:54;;;;;;;275.90;77.82;;;;;;;;;;4963053;28;20422;-56
2021/11/10 11:43:24;;;;;;;115.50;39.53;;;;;;;;;;4959388;28;20034;-57
2021/11/10 11:45:51;;;;;;;;;;;;;;;;;;4964267;28;20023;-58
2021/11/10 11:48:21;;;;;;;73.75;33.08;;;;;;;;;;4964987;28;19975;-58
2021/11/10 11:50:48;;;;;;;100.25;44.00;;;;;;;;;;4968426;28;20480;-57
2021/11/10 11:53:15;;;;;;;80.65;37.25;;;;;;;;;;4967306;28;20034;-57
2021/11/10 11:55:48;;;;;;;61.47;30.52;;;;;;;;;;4967298;28;20047;-57
2021/11/10 11:58:21;;;;;;;53.17;26.02;;;;;;;;;;4961520;28;20062;-57
2021/11/10 12:00:51;;;;;;;47.22;23.98;;;;;;;;;;4965065;28;20038;-57
2021/11/10 12:03:23;;;;;;;45.50;23.10;;;;;;;;;;4965761;28;20031;-57
2021/11/10 12:05:51;;;;;;;48.50;23.52;;;;;;;;;;4963126;28;20031;-58
2021/11/10 12:08:42;;;;;;;45.30;23.60;;;;;;;;;;4966748;28;20515;-57
2021/11/10 12:11:19;;;;;;;48.33;23.63;;;;;;;;;;4969258;28;20050;-58
2021/11/10 12:14:18;;;;;;;47.42;23.35;;;;;;;;;;4966620;28;20031;-59
2021/11/10 12:16:57;;;;;;;46.55;23.08;;;;;;;;;;4967097;28;20034;-58
2021/11/10 12:19:38;;;;;;;42.15;22.60;;;;;;;;;;4963270;28;20126;-58
2021/11/10 12:22:18;;;;;;;37.92;20.25;;;;;;;;;;4963955;28;20126;-58
2021/11/10 12:24:52;;;;;;;81.82;34.70;;;;;;;;;;4966200;28;20448;-58
2021/11/10 12:27:34;;;;;;;51.00;23.02;;;;;;;;;;4967182;28;20486;-58
2021/11/10 12:30:25;;;;;;;65.57;28.83;;;;;;;;;;4965638;28;20089;-58
2021/11/10 12:32:56;;;;;;;84.75;33.15;;;;;;;;;;4963404;28;20497;-58
2021/11/10 12:35:36;;;;;;;149.38;44.35;;;;;;;;;;4963036;28;20107;-58
2021/11/10 12:38:16;;;;;;;94.60;36.15;;;;;;;;;;4965881;28;20108;-59
2021/11/10 12:40:48;;;;;;;70.60;27.98;;;;;;;;;;4967142;28;20540;-58
2021/11/10 12:43:17;;;;;;;304.48;67.75;;;;;;;;;;4963696;28;20049;-58
2021/11/10 12:46:05;;;;;;;213.65;51.95;;;;;;;;;;4964326;28;20033;-59
2021/11/10 12:48:44;;;;;;;238.45;59.13;;;;;;;;;;4966223;28;20023;-58
2021/11/10 12:51:19;;;;;;;282.60;73.20;;;;;;;;;;4961718;28;20698;-58
2021/11/10 12:53:51;;;;;;;78.15;29.77;;;;;;;;;;4967254;28;20027;-58
2021/11/10 12:56:55;;;;;;;377.80;102.70;;;;;;;;;;4963765;28;20033;-59
2021/11/10 12:59:31;;;;;;;135.30;42.17;;;;;;;;;;4959729;28;20723;-59
2021/11/10 13:01:58;;;;;;;94.22;33.65;;;;;;;;;;4959228;28;20505;-58
2021/11/10 13:04:32;;;;;;;194.73;55.92;;;;;;;;;;4961448;28;20027;-58
2021/11/10 13:07:06;;;;;;;397.25;115.50;;;;;;;;;;4961309;28;20119;-58
2021/11/10 13:11:59;;;;;;;40.90;22.85;;;;;;;;;;4966312;28;20093;-58
2021/11/10 13:14:26;;;;;;;36.67;21.10;;;;;;;;;;4964458;28;20493;-59
2021/11/10 13:17:09;;;;;;;31.38;18.63;;;;;;;;;;4961854;28;20445;-58
2021/11/10 13:19:48;;;;;;;32.28;19.40;;;;;;;;;;4957486;28;20038;-59
2021/11/10 13:22:33;;;;;;;34.38;19.20;;;;;;;;;;4962368;28;20034;-58
2021/11/10 13:25:43;;;;;;;34.60;20.88;;;;;;;;;;4961830;28;20086;-58
2021/11/10 13:28:11;;;;;;;37.15;19.67;;;;;;;;;;4903006;29;20121;-58
2021/11/10 13:30:49;;;;;;;62.05;28.52;;;;;;;;;;4905905;29;20044;-58
2021/11/10 13:33:40;;;;;;;154.88;50.40;;;;;;;;;;4937843;28;20046;-58
2021/11/10 13:36:35;;;;;;;115.90;41.38;;;;;;;;;;4956384;28;20031;-58
2021/11/10 13:39:05;;;;;;;113.43;38.15;;;;;;;;;;4959610;28;20038;-58
2021/11/10 13:41:44;;;;;;;;;;;;;;;;;;4958190;28;20027;-58
2021/11/10 13:44:22;;;;;;;71.85;28.40;;;;;;;;;;4961936;28;19960;-58
2021/11/10 13:47:02;;;;;;;281.10;79.85;;;;;;;;;;4964656;28;20136;-58
2021/11/10 13:49:27;;;;;;;362.80;101.85;;;;;;;;;;4961185;28;20029;-58
2021/11/10 13:51:57;;;;;;;559.35;165.98;;;;;;;;;;4961490;28;20023;-58
2021/11/10 13:54:24;;;;;;;;;;;;;;;;;;4962663;28;20485;-58
2021/11/10 13:56:56;;;;;;;347.05;103.05;;;;;;;;;;4962066;28;19918;-58
2021/11/10 13:59:35;;;;;;;186.15;64.55;;;;;;;;;;4963664;28;20038;-58
2021/11/10 14:02:05;;;;;;;96.43;40.15;;;;;;;;;;4958036;28;20485;-58
2021/11/10 14:04:32;;;;;;;51.63;26.38;;;;;;;;;;4965632;28;20085;-59
2021/11/10 14:07:01;;;;;;;45.90;25.90;;;;;;;;;;4958843;28;20499;-59
2021/11/10 14:09:26;;;;;;;48.67;26.48;;;;;;;;;;4957865;28;20027;-58
2021/11/10 14:11:51;;;;;;;39.97;23.08;;;;;;;;;;4959193;28;20041;-58
2021/11/10 14:14:33;;;;;;;36.90;21.38;;;;;;;;;;4960682;28;20118;-58
2021/11/10 14:16:59;;;;;;;37.60;20.70;;;;;;;;;;4959882;28;20046;-58
2021/11/10 14:19:24;;;;;;;33.95;20.02;;;;;;;;;;4959612;28;20039;-58
2021/11/10 14:22:10;;;;;;;34.90;20.88;;;;;;;;;;4959875;28;20085;-59
2021/11/10 14:24:35;;;;;;;38.47;19.40;;;;;;;;;;4961085;28;20070;-59
2021/11/10 14:27:05;;;;;;;35.47;19.80;;;;;;;;;;4962344;28;20496;-59
2021/11/10 14:29:31;;;;;;;38.33;21.02;;;;;;;;;;4961874;28;20054;-59
2021/11/10 14:31:57;;;;;;;37.40;20.67;;;;;;;;;;4959409;28;20117;-59
2021/11/10 14:34:32;;;;;;;36.30;19.42;;;;;;;;;;4962116;28;20110;-59
2021/11/10 14:37:00;;;;;;;37.05;20.23;;;;;;;;;;4960833;28;20031;-59
2021/11/10 14:39:26;;;;;;;39.28;21.33;;;;;;;;;;4962165;28;20027;-59
2021/11/10 14:42:00;;;;;;;37.25;19.52;;;;;;;;;;4958917;28;20468;-59
2021/11/10 14:44:32;;;;;;;42.85;22.15;;;;;;;;;;4961420;28;20023;-59